Time;durP1;ratioP1;P1;durP2;ratioP2;P2;SDS_P1;SDS_P2;PMS_P1;PMS_P2;Temp;Humidity;BMP_temperature;BMP_pressure;BME280_temperature;BME280_humidity;BME280_pressure;Samples;Min_cycle;Max_cycle;Signal;HPM_P1;HPM_P2
2023/06/23 00:00:00;;;;;;;1.80;1.40;;;;;;;21.27;85.92;156833.56;5026521;28;20466;-76
2023/06/23 00:02:27;;;;;;;1.60;1.20;;;;;;;21.22;87.82;156820.53;5027848;28;20462;-76
2023/06/23 00:04:54;;;;;;;1.60;1.10;;;;;;;21.17;87.62;156807.47;5026167;28;20989;-76
2023/06/23 00:07:20;;;;;;;1.93;1.33;;;;;;;21.18;89.16;156810.09;5018190;28;20494;-76
2023/06/23 00:09:47;;;;;;;1.67;1.30;;;;;;;21.17;89.73;156807.47;5008156;28;20452;-76
2023/06/23 00:12:13;;;;;;;2.50;1.33;;;;;;;21.13;89.31;156797.00;4997421;28;20470;-76
2023/06/23 00:14:42;;;;;;;1.80;1.10;;;;;;;21.06;90.29;156778.69;5031242;28;21161;-76
2023/06/23 00:17:08;;;;;;;2.07;1.40;;;;;;;21.01;91.78;156766.97;5016903;28;20452;-75
2023/06/23 00:19:35;;;;;;;2.17;1.47;;;;;;;20.98;90.81;156757.81;5006712;28;20518;-76
2023/06/23 00:22:03;;;;;;;2.83;1.57;;;;;;;20.95;91.63;156751.31;5023851;28;20534;-76
2023/06/23 00:24:30;;;;;;;3.00;1.97;;;;;;;20.91;92.62;156739.56;5033043;28;20468;-76
2023/06/23 00:26:57;;;;;;;2.17;1.60;;;;;;;20.88;92.61;156733.06;5013610;28;20450;-76
2023/06/23 00:29:23;;;;;;;2.20;1.77;;;;;;;20.86;93.38;156726.53;5020821;28;20462;-75
2023/06/23 00:31:51;;;;;;;1.93;1.53;;;;;;;20.85;93.47;156723.91;5023793;28;20463;-75
2023/06/23 00:34:18;;;;;;;2.37;1.80;;;;;;;20.77;93.85;156703.03;5004388;28;20448;-75
2023/06/23 00:36:44;;;;;;;2.97;1.80;;;;;;;20.77;94.32;156703.03;5029432;28;20446;-76
2023/06/23 00:39:11;;;;;;;3.30;1.90;;;;;;;20.72;94.42;156691.28;5036910;28;20476;-76
2023/06/23 00:41:37;;;;;;;2.47;2.03;;;;;;;20.65;95.10;156673.03;5015979;28;20465;-76
2023/06/23 00:44:08;;;;;;;2.10;1.40;;;;;;;20.62;95.66;156666.47;5012958;28;20516;-75
2023/06/23 00:46:34;;;;;;;2.97;1.80;;;;;;;20.55;95.93;156646.91;5033493;28;20483;-76
2023/06/23 00:49:04;;;;;;;2.20;1.90;;;;;;;20.53;96.99;156643.03;5033062;28;20479;-75
2023/06/23 00:51:31;;;;;;;2.10;1.63;;;;;;;20.52;97.05;156640.41;5021451;28;20888;-76
2023/06/23 00:53:58;;;;;;;2.30;2.10;;;;;;;20.52;96.75;156640.41;5020485;28;20455;-76
2023/06/23 00:56:25;;;;;;;2.33;1.80;;;;;;;20.54;97.31;156644.34;5012469;28;20464;-76
2023/06/23 00:58:51;;;;;;;2.57;1.90;;;;;;;20.52;97.24;156639.06;5013280;28;20451;-76
2023/06/23 01:01:21;;;;;;;2.57;2.17;;;;;;;20.49;98.14;156632.56;5030314;28;20464;-76
2023/06/23 01:03:48;;;;;;;2.50;2.10;;;;;;;20.48;98.28;156628.66;5020332;28;20535;-75
2023/06/23 01:06:25;;;;;;;4.60;2.63;;;;;;;20.45;98.73;156622.16;5024450;28;20489;-76
2023/06/23 01:08:57;;;;;;;2.23;2.00;;;;;;;20.44;99.09;156619.53;5021014;28;20439;-76
2023/06/23 01:11:30;;;;;;;2.67;2.20;;;;;;;20.45;99.01;156622.16;5012116;28;20584;-75
2023/06/23 01:14:01;;;;;;;2.70;2.30;;;;;;;20.45;100.00;156620.84;5005451;28;20444;-74
2023/06/23 01:16:30;;;;;;;2.10;1.90;;;;;;;20.44;100.00;156619.53;5010907;28;20534;-74
2023/06/23 01:19:10;;;;;;;2.67;2.37;;;;;;;20.46;100.00;156623.47;5010411;28;20455;-74
2023/06/23 01:21:51;;;;;;;2.30;2.10;;;;;;;20.35;100.00;156596.06;5018725;28;20448;-74
2023/06/23 01:24:34;;;;;;;2.10;1.90;;;;;;;20.31;100.00;156585.63;5012158;28;20958;-74
2023/06/23 01:27:19;;;;;;;2.87;2.63;;;;;;;20.30;100.00;156581.72;5011860;28;20894;-74
2023/06/23 01:29:48;;;;;;;2.73;2.50;;;;;;;20.29;100.00;156580.41;5027518;28;20464;-74
2023/06/23 01:32:17;;;;;;;3.27;2.70;;;;;;;20.26;100.00;156571.25;5010268;28;20456;-75
2023/06/23 01:34:46;;;;;;;2.33;2.10;;;;;;;20.20;100.00;156555.59;5018359;28;20448;-75
2023/06/23 01:37:19;;;;;;;2.60;2.40;;;;;;;20.05;100.00;156519.06;5001834;28;20507;-74
2023/06/23 01:39:49;;;;;;;2.87;2.50;;;;;;;19.92;100.00;156483.84;5007909;28;20551;-74
2023/06/23 01:42:18;;;;;;;3.80;2.60;;;;;;;19.80;100.00;156452.59;5021142;28;20926;-74
2023/06/23 01:44:49;;;;;;;4.20;2.57;;;;;;;19.70;100.00;156426.47;5005243;28;20998;-74
2023/06/23 01:47:17;;;;;;;3.40;3.10;;;;;;;19.62;100.00;156406.91;5009509;28;20558;-74
2023/06/23 01:49:45;;;;;;;3.57;3.27;;;;;;;19.53;100.00;156382.16;5011315;28;20440;-74
2023/06/23 01:52:13;;;;;;;3.50;3.20;;;;;;;19.41;100.00;156353.47;5010378;28;20455;-74
2023/06/23 01:54:41;;;;;;;4.10;3.60;;;;;;;19.37;100.00;156343.06;5010466;28;20787;-73
2023/06/23 01:57:12;;;;;;;4.27;3.80;;;;;;;19.36;100.00;156339.09;5007139;28;20822;-74
2023/06/23 01:59:39;;;;;;;4.50;3.87;;;;;;;19.36;100.00;156340.41;5010098;28;20455;-74
2023/06/23 02:02:08;;;;;;;6.63;3.80;;;;;;;19.32;100.00;156328.69;5009931;28;20457;-74
2023/06/23 02:04:35;;;;;;;4.43;4.03;;;;;;;19.28;100.00;156318.22;5027972;28;20544;-74
2023/06/23 02:07:03;;;;;;;4.37;3.97;;;;;;;19.24;100.00;156309.13;5007049;28;20862;-74
2023/06/23 02:09:30;;;;;;;4.40;3.90;;;;;;;19.20;100.00;156298.69;5021042;28;20455;-74
2023/06/23 02:11:58;;;;;;;4.20;3.63;;;;;;;19.18;100.00;156292.19;5022960;28;20468;-73
2023/06/23 02:14:26;;;;;;;4.67;3.50;;;;;;;19.14;100.00;156281.78;5024817;28;20546;-74
2023/06/23 02:16:53;;;;;;;4.60;4.20;;;;;;;19.05;100.00;156259.59;5026461;28;20448;-74
2023/06/23 02:19:22;;;;;;;3.57;2.87;;;;;;;19.01;100.00;156249.16;5004501;28;21129;-74
2023/06/23 02:21:49;;;;;;;4.30;3.47;;;;;;;18.97;100.00;156238.75;4988230;28;20452;-74
2023/06/23 02:24:18;;;;;;;2.70;2.50;;;;;;;18.96;100.00;156236.13;4999062;28;20448;-74
2023/06/23 02:26:47;;;;;;;2.60;2.30;;;;;;;18.93;100.00;156228.31;4977321;28;20516;-74
2023/06/23 02:29:14;;;;;;;3.27;2.90;;;;;;;18.94;100.00;156230.94;5001084;28;20451;-74
2023/06/23 02:31:40;;;;;;;2.63;2.43;;;;;;;18.90;100.00;156220.53;5027427;28;20526;-74
2023/06/23 02:34:08;;;;;;;3.10;2.80;;;;;;;18.84;100.00;156206.19;5006846;28;21045;-73
2023/06/23 02:36:44;;;;;;;3.57;2.50;;;;;;;18.73;100.00;156177.53;5014172;28;20543;-74
2023/06/23 02:39:11;;;;;;;3.20;2.67;;;;;;;18.66;100.00;156158.00;5014539;28;20462;-74
2023/06/23 02:41:39;;;;;;;3.27;2.93;;;;;;;18.60;100.00;156142.34;5016559;28;20460;-74
2023/06/23 02:44:10;;;;;;;4.43;3.93;;;;;;;18.58;100.00;156137.13;5018568;28;20456;-74
2023/06/23 02:46:39;;;;;;;3.90;3.27;;;;;;;18.51;100.00;156120.19;5023203;28;20997;-74
2023/06/23 02:49:07;;;;;;;4.00;3.60;;;;;;;18.53;100.00;156124.13;5001750;28;20581;-74
2023/06/23 02:51:36;;;;;;;4.50;4.10;;;;;;;18.54;100.00;156128.00;5003566;28;20467;-74
2023/06/23 02:54:06;;;;;;;5.03;4.50;;;;;;;18.51;100.00;156118.88;5012072;28;20461;-74
2023/06/23 02:56:34;;;;;;;5.63;4.47;;;;;;;18.45;100.00;156103.22;4988985;28;20978;-75
2023/06/23 02:59:05;;;;;;;5.60;5.10;;;;;;;18.43;100.00;156097.97;4996504;28;20840;-75
2023/06/23 03:01:33;;;;;;;5.60;5.00;;;;;;;18.41;100.00;156092.78;5006713;28;20487;-75
2023/06/23 03:04:00;;;;;;;5.70;5.10;;;;;;;18.43;100.00;156099.28;5020571;28;20463;-74
2023/06/23 03:06:26;;;;;;;6.73;6.13;;;;;;;18.41;100.00;156094.09;5007216;28;20516;-74
2023/06/23 03:08:54;;;;;;;7.20;6.17;;;;;;;18.39;100.00;156087.59;5033116;28;20451;-74
2023/06/23 03:11:22;;;;;;;7.27;6.50;;;;;;;18.41;100.00;156094.09;5009618;28;20461;-75
2023/06/23 03:13:49;;;;;;;7.40;6.70;;;;;;;18.41;100.00;156092.78;5016353;28;20448;-74
2023/06/23 03:16:21;;;;;;;7.20;6.50;;;;;;;18.40;100.00;156091.47;5013871;28;20467;-74
2023/06/23 03:18:54;;;;;;;7.87;7.03;;;;;;;18.37;100.00;156082.38;5005374;28;20452;-75
2023/06/23 03:21:24;;;;;;;7.13;6.43;;;;;;;18.39;100.00;156087.59;5011931;28;20449;-74
2023/06/23 03:23:52;;;;;;;8.20;6.50;;;;;;;18.39;100.00;156087.59;4995917;28;20483;-74
2023/06/23 03:26:21;;;;;;;8.20;7.40;;;;;;;18.40;100.00;156090.22;4987340;28;21233;-74
2023/06/23 03:28:49;;;;;;;8.87;7.97;;;;;;;18.38;100.00;156084.97;5011583;28;20451;-74
2023/06/23 03:31:17;;;;;;;8.93;7.83;;;;;;;18.35;100.00;156077.19;5028356;28;20459;-74
2023/06/23 03:33:44;;;;;;;8.67;7.87;;;;;;;18.30;100.00;156065.44;5033840;28;20484;-74
2023/06/23 03:36:14;;;;;;;8.70;7.80;;;;;;;18.31;100.00;156068.06;4994547;28;20668;-74
2023/06/23 03:38:44;;;;;;;9.10;8.20;;;;;;;18.30;100.00;156064.13;5024938;28;20827;-74
2023/06/23 03:41:12;;;;;;;8.27;7.47;;;;;;;18.27;100.00;156056.34;5011032;28;20470;-74
2023/06/23 03:43:43;;;;;;;9.27;8.30;;;;;;;18.25;100.00;156053.72;5020640;28;20459;-74
2023/06/23 03:46:15;;;;;;;9.47;8.53;;;;;;;18.27;100.00;156057.59;5028620;28;20479;-75
2023/06/23 03:48:42;;;;;;;8.47;7.67;;;;;;;18.26;100.00;156055.03;5003705;28;20937;-75
2023/06/23 03:51:09;;;;;;;9.23;8.30;;;;;;;18.27;100.00;156056.34;5014260;28;23871;-75
2023/06/23 03:53:37;;;;;;;9.87;8.83;;;;;;;18.27;100.00;156058.91;5021049;28;20800;-75
2023/06/23 03:56:06;;;;;;;9.50;8.50;;;;;;;18.26;100.00;156055.03;5004074;28;20471;-74
2023/06/23 03:58:33;;;;;;;10.27;9.27;;;;;;;18.27;100.00;156058.91;5010560;28;20459;-75
2023/06/23 04:01:02;;;;;;;9.70;8.80;;;;;;;18.29;100.00;156061.53;5009310;28;20469;-74
2023/06/23 04:03:30;;;;;;;10.43;9.50;;;;;;;18.30;100.00;156064.13;5023838;28;20994;-74
2023/06/23 04:05:58;;;;;;;10.00;9.00;;;;;;;18.31;100.00;156066.75;5006460;28;20485;-74
2023/06/23 04:08:24;;;;;;;9.33;8.43;;;;;;;18.32;100.00;156070.63;4988244;28;20481;-74
2023/06/23 04:10:52;;;;;;;10.80;9.80;;;;;;;18.34;100.00;156074.56;5019614;28;20511;-74
2023/06/23 04:13:20;;;;;;;10.10;9.10;;;;;;;18.34;99.74;156074.56;5005207;28;20469;-74
2023/06/23 04:15:48;;;;;;;12.00;9.10;;;;;;;18.35;100.00;156078.44;4985699;28;20914;-75
2023/06/23 04:18:17;;;;;;;11.00;9.90;;;;;;;18.40;100.00;156091.47;4991115;28;20561;-74
2023/06/23 04:20:44;;;;;;;11.63;10.43;;;;;;;18.40;99.21;156090.22;4985598;28;20467;-74
2023/06/23 04:23:12;;;;;;;10.90;9.80;;;;;;;18.40;99.50;156090.22;5007947;28;20452;-74
2023/06/23 04:25:40;;;;;;;12.67;10.33;;;;;;;18.41;99.54;156092.78;4992460;28;20970;-75
2023/06/23 04:28:12;;;;;;;10.87;9.83;;;;;;;18.40;99.30;156090.22;5006683;28;20468;-75
2023/06/23 04:30:41;;;;;;;10.27;9.27;;;;;;;18.42;98.96;156095.41;4988739;28;20958;-76
2023/06/23 04:33:08;;;;;;;10.87;9.77;;;;;;;18.42;98.96;156096.72;5006861;28;20460;-76
2023/06/23 04:35:37;;;;;;;10.43;9.43;;;;;;;18.46;99.16;156105.81;5001977;28;20551;-76
2023/06/23 04:38:04;;;;;;;10.97;9.87;;;;;;;18.50;98.72;156116.31;5005866;28;20529;-84
2023/06/23 04:40:35;;;;;;;12.90;11.70;;;;;;;18.53;98.38;156124.13;5023843;28;20474;-83
2023/06/23 04:43:09;;;;;;;15.53;12.00;;;;;;;18.52;97.84;156121.50;5005152;28;20458;-83
2023/06/23 04:45:38;;;;;;;12.60;11.00;;;;;;;18.53;98.39;156124.13;4996336;28;20479;-83
2023/06/23 04:48:08;;;;;;;11.03;9.87;;;;;;;18.53;98.10;156124.13;5010533;28;20845;-83
2023/06/23 04:50:35;;;;;;;12.13;11.00;;;;;;;18.59;97.73;156139.72;5019291;28;20448;-83
2023/06/23 04:53:06;;;;;;;12.90;11.60;;;;;;;18.64;97.31;156152.75;5006379;28;20983;-83
2023/06/23 04:55:34;;;;;;;12.60;10.80;;;;;;;18.60;97.30;156142.34;5026363;28;20483;-83
2023/06/23 04:58:04;;;;;;;12.83;11.47;;;;;;;18.61;97.46;156144.97;5009754;28;20450;-83
2023/06/23 05:00:31;;;;;;;12.30;11.07;;;;;;;18.60;97.12;156143.66;5007064;28;20464;-82
2023/06/23 05:02:59;;;;;;;11.33;10.30;;;;;;;18.62;96.79;156148.84;5028840;28;20913;-82
2023/06/23 05:05:28;;;;;;;13.60;12.23;;;;;;;18.66;96.58;156158.00;5033122;28;20797;-82
2023/06/23 05:07:56;;;;;;;12.53;11.27;;;;;;;18.66;96.06;156158.00;5018383;28;20483;-82
2023/06/23 05:10:25;;;;;;;12.40;11.10;;;;;;;18.63;95.67;156151.47;5004160;28;20445;-82
2023/06/23 05:12:53;;;;;;;12.70;11.37;;;;;;;18.70;96.28;156168.38;4999505;28;20463;-82
2023/06/23 05:15:21;;;;;;;12.87;11.60;;;;;;;18.75;95.47;156181.41;5004753;28;20455;-82
2023/06/23 05:17:49;;;;;;;13.60;12.20;;;;;;;18.75;94.88;156181.41;5003376;28;20447;-82
2023/06/23 05:20:17;;;;;;;15.13;13.53;;;;;;;18.78;93.87;156189.22;4987797;28;20973;-82
2023/06/23 05:22:45;;;;;;;14.20;12.70;;;;;;;18.80;94.41;156194.44;5004675;28;20449;-82
2023/06/23 05:25:12;;;;;;;14.90;13.43;;;;;;;18.78;94.29;156190.53;5002406;28;20452;-83
2023/06/23 05:27:44;;;;;;;14.90;13.13;;;;;;;18.81;94.47;156197.06;5007207;28;20480;-82
2023/06/23 05:30:13;;;;;;;15.10;13.50;;;;;;;18.85;93.96;156208.78;5018179;28;20966;-82
2023/06/23 05:32:41;;;;;;;15.43;13.90;;;;;;;18.96;93.67;156234.81;4988163;28;20983;-83
2023/06/23 05:35:09;;;;;;;16.03;14.40;;;;;;;19.00;93.52;156246.59;4985980;28;20447;-82
2023/06/23 05:37:36;;;;;;;15.53;13.80;;;;;;;19.06;92.26;156262.19;5009525;28;20834;-83
2023/06/23 05:40:04;;;;;;;14.93;13.33;;;;;;;19.06;92.31;156262.19;5005709;28;20464;-82
2023/06/23 05:42:32;;;;;;;17.17;15.37;;;;;;;19.12;93.02;156276.53;5016768;28;20470;-83
2023/06/23 05:45:03;;;;;;;14.80;13.33;;;;;;;19.13;92.46;156280.47;5000465;28;20451;-82
2023/06/23 05:47:36;;;;;;;16.57;14.63;;;;;;;19.15;91.88;156285.66;5019684;28;20496;-82
2023/06/23 05:50:06;;;;;;;15.73;14.03;;;;;;;19.13;92.45;156279.16;4991597;28;20457;-82
2023/06/23 05:52:35;;;;;;;16.70;14.97;;;;;;;19.16;91.61;156286.97;5002028;28;20473;-82
2023/06/23 05:55:02;;;;;;;15.70;14.20;;;;;;;19.21;91.31;156301.31;5002935;28;20486;-82
2023/06/23 05:57:30;;;;;;;16.47;14.90;;;;;;;19.21;91.09;156301.31;5003428;28;20894;-83
2023/06/23 06:00:05;;;;;;;16.40;14.70;;;;;;;19.22;91.37;156303.88;5003576;28;21009;-82
2023/06/23 06:02:40;;;;;;;16.87;15.07;;;;;;;19.25;90.75;156311.72;5016572;28;20810;-83
2023/06/23 06:05:10;;;;;;;17.17;15.37;;;;;;;19.27;91.14;156316.91;5022137;28;20473;-83
2023/06/23 06:07:38;;;;;;;17.20;15.40;;;;;;;19.28;90.31;156318.22;5005433;28;20551;-83
2023/06/23 06:10:07;;;;;;;18.70;16.00;;;;;;;19.28;90.22;156318.22;4996169;28;20856;-82
2023/06/23 06:12:34;;;;;;;17.77;15.97;;;;;;;19.29;89.89;156322.16;5034190;28;20468;-82
2023/06/23 06:15:04;;;;;;;17.10;15.40;;;;;;;19.36;90.01;156339.09;5005338;28;20499;-83
2023/06/23 06:17:33;;;;;;;17.87;15.97;;;;;;;19.37;89.64;156343.06;4999500;28;20487;-83
2023/06/23 06:20:02;;;;;;;17.70;15.90;;;;;;;19.44;89.07;156361.31;5018175;28;21061;-83
2023/06/23 06:22:30;;;;;;;17.70;15.93;;;;;;;19.48;90.24;156369.13;5002886;28;20467;-83
2023/06/23 06:24:58;;;;;;;16.70;15.00;;;;;;;19.54;88.99;156384.78;5017291;28;20457;-83
2023/06/23 06:27:25;;;;;;;16.40;14.60;;;;;;;19.60;87.81;156400.41;5018788;28;20804;-83
2023/06/23 06:29:54;;;;;;;16.07;14.47;;;;;;;19.71;88.71;156430.41;5018191;28;20467;-83
2023/06/23 06:32:22;;;;;;;14.30;12.90;;;;;;;19.93;87.74;156486.47;5015448;28;20816;-83
2023/06/23 06:34:50;;;;;;;20.80;15.37;;;;;;;20.14;87.47;156539.94;5010161;28;20453;-82
2023/06/23 06:37:17;;;;;;;17.47;15.43;;;;;;;20.29;85.93;156580.41;5013550;28;20459;-82
2023/06/23 06:39:45;;;;;;;16.27;14.60;;;;;;;20.48;83.67;156628.66;5021074;28;21452;-83
2023/06/23 06:42:12;;;;;;;14.70;13.30;;;;;;;20.67;83.20;156676.94;4999714;28;20452;-83
2023/06/23 06:44:41;;;;;;;15.23;13.73;;;;;;;20.80;83.08;156710.84;4985925;28;20817;-83
2023/06/23 06:47:09;;;;;;;15.03;13.53;;;;;;;20.78;81.38;156705.66;5015161;28;20480;-83
2023/06/23 06:49:37;;;;;;;14.83;13.43;;;;;;;20.84;82.46;156722.59;5015552;28;20551;-84
2023/06/23 06:52:05;;;;;;;15.07;13.47;;;;;;;20.90;80.95;156736.94;5017477;28;20534;-84
2023/06/23 06:54:32;;;;;;;17.10;13.33;;;;;;;20.96;80.83;156752.63;5015074;28;20460;-84
2023/06/23 06:57:01;;;;;;;14.23;12.83;;;;;;;21.10;80.39;156790.50;5013263;28;20472;-84
2023/06/23 06:59:28;;;;;;;16.77;14.60;;;;;;;21.16;80.19;156806.16;5016324;28;20788;-81
2023/06/23 07:01:55;;;;;;;13.07;11.80;;;;;;;21.30;79.71;156840.09;5017329;28;20838;-82
2023/06/23 07:04:22;;;;;;;16.13;14.40;;;;;;;21.47;78.69;156884.50;5018055;28;20962;-83
2023/06/23 07:06:53;;;;;;;15.17;13.80;;;;;;;21.47;77.34;156885.75;5001608;28;21142;-83
2023/06/23 07:09:20;;;;;;;15.00;13.40;;;;;;;21.33;77.48;156849.25;5028401;28;20439;-84
2023/06/23 07:11:48;;;;;;;14.93;13.40;;;;;;;21.23;76.78;156823.16;5017558;28;20460;-83
2023/06/23 07:14:14;;;;;;;14.70;13.30;;;;;;;21.23;78.40;156823.16;5009138;28;20986;-83
2023/06/23 07:16:41;;;;;;;14.10;12.80;;;;;;;21.24;77.57;156825.72;5017912;28;20486;-82
2023/06/23 07:19:08;;;;;;;13.90;12.60;;;;;;;21.21;78.87;156819.22;5024566;28;20459;-82
2023/06/23 07:21:34;;;;;;;13.90;12.60;;;;;;;21.24;79.24;156827.03;5019722;28;20459;-82
2023/06/23 07:24:03;;;;;;;14.23;12.83;;;;;;;21.40;77.60;156867.50;5011919;28;22080;-82
2023/06/23 07:26:37;;;;;;;13.20;11.80;;;;;;;21.57;77.25;156910.59;5026465;28;20867;-82
2023/06/23 07:29:03;;;;;;;14.83;13.37;;;;;;;21.61;77.12;156922.31;5004267;28;20501;-82
2023/06/23 07:31:31;;;;;;;13.93;12.63;;;;;;;21.63;76.64;156926.28;5020874;28;20452;-79
2023/06/23 07:33:58;;;;;;;14.80;13.20;;;;;;;21.66;74.65;156935.38;5024075;28;20474;-79
2023/06/23 07:36:24;;;;;;;13.70;12.40;;;;;;;21.66;74.84;156935.38;5017514;28;20492;-79
2023/06/23 07:38:51;;;;;;;16.33;12.30;;;;;;;21.62;73.92;156923.63;5032742;28;20444;-79
2023/06/23 07:41:56;;;;;;;14.47;13.10;;;;;;;21.70;73.66;156945.84;5022381;28;21079;-79
2023/06/23 07:45:01;;;;;;;13.60;12.30;;;;;;;21.71;74.41;156948.44;5038176;28;21265;-79
2023/06/23 07:48:06;;;;;;;12.90;11.50;;;;;;;21.65;73.46;156932.78;5037328;28;20527;-79
2023/06/23 07:51:10;;;;;;;11.40;10.23;;;;;;;21.58;73.68;156913.16;5029087;28;20835;-79
2023/06/23 07:54:14;;;;;;;14.00;10.87;;;;;;;21.59;73.00;156917.13;5038252;28;20995;-79
2023/06/23 07:57:21;;;;;;;11.70;10.50;;;;;;;21.57;73.53;156911.91;5028473;28;20481;-79
2023/06/23 07:59:48;;;;;;;11.87;10.77;;;;;;;21.74;72.10;156954.94;5032978;28;20458;-79
2023/06/23 08:02:15;;;;;;;10.47;9.47;;;;;;;21.99;73.10;157019.00;5025655;28;20525;-79
2023/06/23 08:04:41;;;;;;;11.50;10.40;;;;;;;22.12;71.48;157052.94;5015424;28;20877;-79
2023/06/23 08:07:08;;;;;;;11.83;10.73;;;;;;;22.12;71.50;157054.25;5027978;28;20494;-80
2023/06/23 08:09:35;;;;;;;11.17;10.03;;;;;;;22.05;69.47;157034.69;5018708;28;20459;-79
2023/06/23 08:12:01;;;;;;;11.77;10.43;;;;;;;21.97;69.38;157013.78;4991768;28;20575;-79
2023/06/23 08:14:29;;;;;;;10.63;9.53;;;;;;;21.91;70.49;156998.09;5034249;28;20459;-79
2023/06/23 08:16:56;;;;;;;12.00;10.43;;;;;;;21.76;69.81;156960.22;5018414;28;20508;-79
2023/06/23 08:19:22;;;;;;;9.90;8.40;;;;;;;21.69;71.21;156943.22;5039449;28;20493;-79
2023/06/23 08:21:49;;;;;;;11.60;10.57;;;;;;;21.68;71.82;156940.59;5038891;28;20478;-79
2023/06/23 08:24:15;;;;;;;10.37;9.37;;;;;;;21.54;71.87;156904.06;5018521;28;20537;-79
2023/06/23 08:30:15;;;;;;;10.60;9.60;;;;;;;21.47;72.27;156885.75;5002672;23;20493;-80
2023/06/23 08:32:42;;;;;;;10.77;9.67;;;;;;;21.63;71.71;156926.28;5021062;28;20479;-79
2023/06/23 08:35:09;;;;;;;9.27;8.40;;;;;;;21.92;72.28;157000.72;5021798;28;20455;-79
2023/06/23 08:37:35;;;;;;;10.87;9.80;;;;;;;22.08;72.00;157043.78;5041895;28;20446;-79
2023/06/23 08:40:02;;;;;;;10.53;9.50;;;;;;;22.18;69.76;157068.63;5041897;28;20848;-80
2023/06/23 08:42:29;;;;;;;10.80;9.90;;;;;;;22.22;70.03;157080.38;5040868;28;20898;-79
2023/06/23 08:44:56;;;;;;;10.80;9.40;;;;;;;22.46;68.31;157141.75;5027644;28;20509;-79
2023/06/23 08:47:27;;;;;;;10.37;9.27;;;;;;;22.50;66.01;157150.91;5026256;28;20451;-80
2023/06/23 08:49:53;;;;;;;11.70;10.50;;;;;;;22.33;67.48;157107.78;5027750;28;20451;-79
2023/06/23 08:52:20;;;;;;;11.07;10.03;;;;;;;22.21;68.11;157077.75;5026527;28;20448;-78
2023/06/23 08:54:47;;;;;;;10.87;9.80;;;;;;;22.16;70.03;157063.41;5028867;28;20983;-78
2023/06/23 08:57:14;;;;;;;10.90;9.80;;;;;;;22.13;68.88;157056.88;5025869;28;20521;-78
2023/06/23 08:59:41;;;;;;;12.17;10.83;;;;;;;22.29;68.17;157098.63;5042471;28;20810;-78
2023/06/23 09:02:08;;;;;;;11.43;10.23;;;;;;;22.58;69.49;157171.81;5040014;28;20456;-78
2023/06/23 09:04:35;;;;;;;11.20;10.10;;;;;;;22.86;68.14;157245.00;5028461;28;20536;-78
2023/06/23 09:07:02;;;;;;;10.27;9.30;;;;;;;23.13;66.99;157314.28;5026505;28;20459;-78
2023/06/23 09:09:28;;;;;;;10.47;9.50;;;;;;;23.41;66.47;157387.50;5021847;28;20537;-78
2023/06/23 09:11:55;;;;;;;10.53;9.60;;;;;;;23.70;66.11;157462.00;5023657;28;20520;-75
2023/06/23 09:14:22;;;;;;;10.23;9.17;;;;;;;23.71;63.52;157465.94;5040012;28;20474;-76
2023/06/23 09:16:49;;;;;;;12.23;11.13;;;;;;;23.76;63.97;157477.69;5040829;28;20490;-76
2023/06/23 09:19:16;;;;;;;9.63;8.73;;;;;;;23.60;62.78;157438.50;5039909;28;20448;-76
2023/06/23 09:21:44;;;;;;;10.13;9.13;;;;;;;23.67;62.99;157455.47;5025463;28;20467;-76
2023/06/23 09:24:11;;;;;;;9.73;8.67;;;;;;;23.65;63.58;157450.25;5039322;28;20455;-76
2023/06/23 09:26:45;;;;;;;10.33;9.33;;;;;;;23.65;64.65;157450.25;5041262;28;20460;-76
2023/06/23 09:29:17;;;;;;;9.57;8.67;;;;;;;23.66;63.08;157452.88;5025532;28;20463;-76
2023/06/23 09:31:44;;;;;;;9.60;8.70;;;;;;;23.66;62.15;157452.88;5039100;28;20498;-76
2023/06/23 09:34:20;;;;;;;9.87;8.90;;;;;;;23.85;64.08;157502.56;5025105;28;20818;-76
2023/06/23 09:36:48;;;;;;;9.87;9.00;;;;;;;23.88;62.88;157510.38;5038059;28;20550;-76
2023/06/23 09:39:15;;;;;;;9.23;8.43;;;;;;;23.96;60.64;157531.28;5039926;28;20451;-76
2023/06/23 09:41:45;;;;;;;10.63;9.63;;;;;;;24.01;62.78;157543.09;5010910;28;20616;-77
2023/06/23 09:44:13;;;;;;;10.10;9.10;;;;;;;24.17;64.02;157586.25;5021424;28;20446;-76
2023/06/23 09:46:42;;;;;;;9.50;8.60;;;;;;;24.28;60.96;157613.72;5033105;28;20799;-76
2023/06/23 09:49:11;;;;;;;8.87;7.80;;;;;;;24.18;62.27;157588.91;5039007;28;20528;-76
2023/06/23 09:51:38;;;;;;;9.80;9.00;;;;;;;24.34;60.66;157628.13;5026061;28;20464;-76
2023/06/23 09:54:06;;;;;;;10.47;9.47;;;;;;;24.49;62.03;157667.38;5015947;28;20463;-76
2023/06/23 09:56:32;;;;;;;7.97;7.17;;;;;;;24.48;59.90;157664.75;5039947;28;20550;-76
2023/06/23 09:58:59;;;;;;;7.63;6.93;;;;;;;24.44;56.49;157654.25;5036713;28;20476;-76
2023/06/23 10:01:26;;;;;;;7.97;7.27;;;;;;;24.41;58.45;157646.47;5023022;28;20490;-76
2023/06/23 10:03:54;;;;;;;7.43;6.73;;;;;;;24.41;59.47;157647.72;5036967;28;20447;-77
2023/06/23 10:06:22;;;;;;;7.00;6.40;;;;;;;24.47;58.36;157663.44;5039100;28;20462;-76
2023/06/23 10:08:48;;;;;;;9.00;8.10;;;;;;;24.58;58.20;157692.22;5038449;28;20528;-76
2023/06/23 10:11:18;;;;;;;7.93;7.00;;;;;;;24.74;58.44;157734.09;5025353;28;20467;-76
2023/06/23 10:13:45;;;;;;;7.87;7.17;;;;;;;24.84;55.83;157758.97;5040014;28;20888;-76
2023/06/23 10:16:12;;;;;;;7.90;7.20;;;;;;;24.91;56.82;157776.00;5018162;28;20960;-76
2023/06/23 10:18:39;;;;;;;6.97;6.27;;;;;;;24.98;57.35;157794.31;5024964;28;20992;-76
2023/06/23 10:21:05;;;;;;;7.53;6.83;;;;;;;25.08;56.79;157821.78;5020817;28;20459;-77
2023/06/23 10:23:32;;;;;;;6.83;6.13;;;;;;;25.17;54.84;157844.03;5021703;28;20514;-77
2023/06/23 10:26:00;;;;;;;7.20;6.50;;;;;;;25.31;55.04;157880.69;5041936;28;20536;-77
2023/06/23 10:28:28;;;;;;;7.37;6.77;;;;;;;25.49;55.31;157926.53;5019697;28;20472;-77
2023/06/23 10:30:55;;;;;;;7.30;6.37;;;;;;;25.65;55.27;157968.44;5039454;28;20509;-77
2023/06/23 10:33:22;;;;;;;7.40;6.77;;;;;;;25.75;51.52;157994.59;5020660;28;20451;-77
2023/06/23 10:35:49;;;;;;;8.30;7.00;;;;;;;25.78;52.31;158002.47;5040532;28;20464;-77
2023/06/23 10:38:19;;;;;;;7.60;6.70;;;;;;;25.79;51.91;158005.03;5021083;28;20526;-77
2023/06/23 10:40:50;;;;;;;8.17;7.47;;;;;;;25.69;51.61;157980.19;5039656;28;20455;-77
2023/06/23 10:43:19;;;;;;;8.10;6.80;;;;;;;25.49;51.58;157927.84;5023209;28;20448;-77
2023/06/23 10:45:48;;;;;;;8.10;7.47;;;;;;;25.35;53.22;157891.13;5015653;28;21014;-77
2023/06/23 10:48:14;;;;;;;6.57;6.07;;;;;;;25.16;54.04;157842.72;5031094;28;20475;-76
2023/06/23 10:50:41;;;;;;;8.40;7.57;;;;;;;25.01;55.28;157803.47;5020936;28;20514;-76
2023/06/23 10:53:16;;;;;;;7.63;6.93;;;;;;;24.85;54.72;157761.59;5036683;28;20509;-76
2023/06/23 10:55:44;;;;;;;7.10;6.50;;;;;;;24.81;56.79;157751.13;5033391;28;20458;-76
2023/06/23 10:58:12;;;;;;;7.43;6.83;;;;;;;24.75;56.96;157735.41;5029760;28;20451;-75
2023/06/23 11:00:40;;;;;;;8.00;7.13;;;;;;;24.70;56.53;157723.59;5040144;28;20459;-76
2023/06/23 11:03:11;;;;;;;8.37;7.57;;;;;;;24.71;56.28;157724.91;5024898;28;20447;-76
2023/06/23 11:05:42;;;;;;;8.10;7.30;;;;;;;24.66;55.37;157711.84;5022631;28;20881;-76
2023/06/23 11:08:10;;;;;;;7.20;6.50;;;;;;;24.67;52.71;157715.78;5038512;28;20452;-76
2023/06/23 11:10:47;;;;;;;8.03;7.23;;;;;;;24.74;53.19;157734.09;5039907;28;20521;-76
2023/06/23 11:13:15;;;;;;;7.87;7.17;;;;;;;24.78;51.24;157743.25;5020945;28;20446;-76
2023/06/23 11:19:52;;;;;;;7.80;7.00;;;;;;;24.67;54.52;157715.78;5042649;28;20666;-76
2023/06/23 11:22:22;;;;;;;6.87;6.20;;;;;;;24.55;54.89;157684.38;5021427;28;21072;-76
2023/06/23 11:24:53;;;;;;;8.90;6.53;;;;;;;24.47;57.61;157663.44;5024551;28;20615;-77
2023/06/23 11:27:20;;;;;;;7.57;6.83;;;;;;;24.41;56.88;157647.72;5040318;28;20520;-77
2023/06/23 11:30:14;;;;;;;7.63;6.97;;;;;;;24.36;57.11;157633.38;5039895;28;20899;-77
2023/06/23 11:32:41;;;;;;;6.70;6.10;;;;;;;24.40;55.69;157643.81;5009201;28;20482;-77